• Join FlightAware (Why Join?)
  • Login
  • US Flag 
01:29AM EST


 

Airport Tracker/Info


-or-


 

Live Flight TrackerFlight Track Log ✈ FLX100 ✈ 27-Apr-2012 ✈ KORL - KCHS

Flight Track Log - Related Links

Times and Time Zones

All times are in EDT time to prevent confusion due to time zone crossing. See the FLX100 flight status page for this flight to view local times or setup timezone preferences in your user account.

Time Position Orientation Groundspeed Altitude Reporting Facility
EDT Latitude Longitude Course Direction KTS MPH feet Rate Location/Type
05:09PM 28.5500 -81.3167 41° Northeast 107 123 400  Level Orlando TRACON
05:10PM 28.5667 -81.3000 41° Northeast 115 132 1,500 600 Climbing Orlando TRACON
05:11PM 28.6000 -81.2667 360° North 157 181 1,600 240 Climbing Orlando TRACON
05:12PM 28.6333 -81.2667 307° West 147 169 2,000 360 Climbing Orlando TRACON
05:13PM 28.6667 -81.3167 319° Northwest 154 177 2,400 600 Climbing Orlando TRACON
05:14PM 28.6833 -81.3333 360° North 127 146 3,300 960 Climbing Orlando TRACON
05:15PM 28.7167 -81.3333 336° Northwest 123 142 4,300 840 Climbing Orlando TRACON
05:16PM 28.7500 -81.3500 360° North 123 142 5,000 300 Climbing Orlando TRACON
05:17PM 28.8000 -81.3500 352° North 156 180 5,000 480 Level Orlando TRACON
05:18PM 28.8397 -81.3567 354° North 130 150 6,200 780 Climbing Jacksonville Center
05:19PM 28.8733 -81.3608 351° North 127 146 6,900 360 Climbing Jacksonville Center
05:20PM 28.9108 -81.3675 353° North 143 165 7,000  Climbing Jacksonville Center
05:21PM 28.9569 -81.3739 358° North 163 188 7,000  Level Jacksonville Center
05:22PM 29.0028 -81.3756 352° North 166 191 7,000  Level Jacksonville Center
05:23PM 29.0553 -81.3842 356° North 173 199 7,000  Level Jacksonville Center
05:24PM 29.1033 -81.3883 354° North 171 197 7,000  Level Jacksonville Center
05:25PM 29.1533 -81.3947 351° North 170 196 7,000  Level Jacksonville Center
05:26PM 29.2014 -81.4033 356° North 168 193 7,000  Level Jacksonville Center
05:27PM 29.2494 -81.4075 358° North 167 192 7,000  Level Jacksonville Center
05:28PM 29.2975 -81.4092 356° North 170 196 7,000  Level Jacksonville Center
05:29PM 29.3436 -81.4131 358° North 170 196 7,000  Level Jacksonville Center
05:30PM 29.3958 -81.4147 352° North 172 198 7,000  Level Jacksonville Center
05:31PM 29.4481 -81.4236 355° North 171 197 7,000  Level Jacksonville Center
05:32PM 29.4878 -81.4278 356° North 171 197 7,000  Level Jacksonville Center
05:33PM 29.5378 -81.4317 356° North 171 197 7,000  Level Jacksonville Center
05:34PM 29.5858 -81.4358 358° North 171 197 7,000  Level Jacksonville Center
05:35PM 29.6339 -81.4375 356° North 169 194 7,000  Level Jacksonville Center
05:36PM 29.6800 -81.4417 353° North 166 191 7,000  Level Jacksonville Center
05:37PM 29.7239 -81.4481 355° North 164 189 7,000  Level Jacksonville Center
05:38PM 29.7656 -81.4522 358° North 163 188 7,000  Level Jacksonville Center
05:39PM 29.8178 -81.4539 353° North 163 188 7,000  Level Jacksonville Center
05:40PM 29.8639 -81.4603 356° North 165 190 7,100  Climbing Jacksonville Center
05:41PM 29.9119 -81.4644 353° North 165 190 7,100  Level Jacksonville Center
05:42PM 29.9581 -81.4708 353° North 166 191 7,100  Level Jacksonville Center
05:43PM 30.0061 -81.4775 358° North 162 186 7,100 -60 Level Jacksonville Center
05:45PM 30.0561 -81.4792 353° North 173 199 7,000  Descending Jacksonville Center
05:46PM 30.1042 -81.4856 353° North 164 189 7,100  Climbing Jacksonville Center
05:47PM 30.1481 -81.4922 356° North 164 189 7,000 -60 Descending Jacksonville Center
05:48PM 30.1942 -81.4964 356° North 164 189 7,000  Level Jacksonville Center
05:49PM 30.2400 -81.5006 358° North 165 190 7,000  Level Jacksonville Center
05:50PM 30.2881 -81.5022 North 164 189 7,000  Level Jacksonville Center
05:51PM 30.3278 -81.5017 358° North 163 188 7,000  Level Jacksonville Center
05:52PM 30.3717 -81.5033 North 156 180 7,000  Level Jacksonville Center
05:53PM 30.4175 -81.5003 North 163 188 7,100  Climbing Jacksonville Center
05:54PM 30.4656 -81.4994 North 163 188 7,000 -60 Descending Jacksonville Center
05:55PM 30.5094 -81.4964 10° North 163 188 7,000  Level Jacksonville Center
05:56PM 30.5572 -81.4861 12° North 164 189 7,000  Level Jacksonville Center
05:56PM 30.5781 -81.4811 North 163 188 7,000  Level Jacksonville Center
05:57PM 30.6219 -81.4803 North 158 182 7,000  Level Jacksonville Center
05:58PM 30.6658 -81.4772 North 158 182 7,000  Level Jacksonville Center
05:59PM 30.7117 -81.4742 North 158 182 7,100  Climbing Jacksonville Center
06:00PM 30.7556 -81.4689 North 158 182 7,100 -60 Level Jacksonville Center
06:01PM 30.7992 -81.4633 North 158 182 7,000 -60 Descending Jacksonville Center
06:02PM 30.8431 -81.4603 North 158 182 7,000  Level Jacksonville Center
06:03PM 30.8847 -81.4594 North 158 182 7,000  Level Jacksonville Center
06:04PM 30.9286 -81.4539 North 158 182 7,000  Level Jacksonville Center
06:05PM 30.9725 -81.4486 North 158 182 7,100  Climbing Jacksonville Center
06:06PM 31.0183 -81.4453 North 158 182 7,100  Level Jacksonville Center
06:07PM 31.0600 -81.4400 12° North 158 182 7,100 -60 Level Jacksonville Center
06:08PM 31.1119 -81.4269 12° North 163 188 7,000 -60 Descending Jacksonville Center
06:09PM 31.1517 -81.4167 10° North 158 182 7,000  Level Jacksonville Center
06:10PM 31.2017 -81.4061 18° North 158 182 7,000  Level Jacksonville Center
06:11PM 31.2431 -81.3908 16° North 158 182 7,000  Level Jacksonville Center
06:12PM 31.2889 -81.3756 13° North 165 190 7,100  Climbing Jacksonville Center
06:13PM 31.3264 -81.3653 North 158 182 7,100  Level Jacksonville Center
06:14PM 31.3722 -81.3572 15° North 158 182 7,100  Level Jacksonville Center
06:15PM 31.4222 -81.3417 21° North 164 189 7,100  Level Jacksonville Center
06:16PM 31.4658 -81.3217 34° Northeast 164 189 7,100  Level Jacksonville Center
06:17PM 31.5031 -81.2917 40° Northeast 164 189 7,100  Level Jacksonville Center
06:18PM 31.5358 -81.2594 37° Northeast 164 189 7,100  Level Jacksonville Center
06:19PM 31.5753 -81.2247 39° Northeast 164 189 7,100  Level Jacksonville Center
06:20PM 31.6122 -81.1897 37° Northeast 164 189 7,100  Level Jacksonville Center
06:21PM 31.6494 -81.1572 31° Northeast 164 189 7,100  Level Jacksonville Center
06:22PM 31.6844 -81.1322 37° Northeast 164 189 7,100  Level Jacksonville Center
06:30PM 31.9375 -80.9042 38° Northeast  Level FlightAware Approximate
06:31PM 31.9712 -80.8736 38° Northeast  Level FlightAware Approximate
06:32PM 32.0050 -80.8430 38° Northeast  Level FlightAware Approximate
06:33PM 32.0388 -80.8124 38° Northeast  Level FlightAware Approximate
06:34PM 32.0725 -80.7818 38° Northeast  Level FlightAware Approximate
06:35PM 32.1063 -80.7511 38° Northeast  Level FlightAware Approximate
06:36PM 32.1400 -80.7204 38° Northeast  Level FlightAware Approximate
06:37PM 32.1737 -80.6897 50° Northeast  Level FlightAware Approximate
06:38PM 32.2002 -80.6522 37° Northeast  Level FlightAware Approximate
06:39PM 32.2342 -80.6219 37° Northeast  Level FlightAware Approximate
06:40PM 32.2682 -80.5916 37° Northeast  Level FlightAware Approximate
06:41PM 32.3022 -80.5612 37° Northeast  Level FlightAware Approximate
06:42PM 32.3362 -80.5309 37° Northeast  Level FlightAware Approximate
06:43PM 32.3702 -80.5005 37° Northeast  Level FlightAware Approximate
06:44PM 32.4041 -80.4701 37° Northeast  Level FlightAware Approximate
06:45PM 32.4381 -80.4396 37° Northeast  Level FlightAware Approximate
06:46PM 32.4721 -80.4092 37° Northeast  Level FlightAware Approximate
06:47PM 32.5060 -80.3787 37° Northeast  Level FlightAware Approximate
06:48PM 32.5400 -80.3482 29° Northeast  Level FlightAware Approximate
06:49PM 32.5748 -80.3252 38° Northeast  Level FlightAware Approximate
06:50PM 32.6083 -80.2940 38° Northeast  Level FlightAware Approximate
06:51PM 32.6418 -80.2627 42° Northeast  Level FlightAware Approximate
06:52PM 32.6731 -80.2290 37° Northeast  Level FlightAware Approximate
06:53PM 32.7070 -80.1983 37° Northeast  Level FlightAware Approximate
06:54PM 32.7408 -80.1676 37° Northeast  Level FlightAware Approximate
06:55PM 32.7746 -80.1368 37° Northeast  Level FlightAware Approximate
06:56PM 32.8084 -80.1060 38° Northeast  Level FlightAware Approximate
06:57PM 32.8419 -80.0747 27° Northeast  Level FlightAware Approximate
06:58PM 32.8799 -80.0518 27° Northeast  Level Estimated
06:59PM 32.9179 -80.0289 186° South  Level Estimated
07:00PM 32.8833 -80.0333 338° Northwest  Level FlightAware Approximate
07:01PM 32.9229 -80.0520 158° South  Level Estimated
07:02PM 32.8833 -80.0333 158° South  Level FlightAware Approximate